createdAt,value
2017-12-26T00:00:20.945Z,0.00
2017-12-26T00:01:20.979Z,0.00
2017-12-26T00:02:21.015Z,0.00
2017-12-26T00:03:21.038Z,0.00
2017-12-26T00:04:21.070Z,0.00
2017-12-26T00:05:21.102Z,0.00
2017-12-26T00:06:21.135Z,0.00
2017-12-26T00:07:21.163Z,0.00
2017-12-26T00:08:21.199Z,0.00
2017-12-26T00:09:21.239Z,0.00
2017-12-26T00:10:21.265Z,0.00
2017-12-26T00:11:21.299Z,0.00
2017-12-26T00:12:21.324Z,0.00
2017-12-26T00:13:21.359Z,0.00
2017-12-26T00:14:21.410Z,0.00
2017-12-26T00:15:21.421Z,0.00
2017-12-26T00:16:21.450Z,0.00
2017-12-26T00:17:21.483Z,0.00
2017-12-26T00:18:21.516Z,0.00
2017-12-26T00:19:21.550Z,0.00
2017-12-26T00:20:21.579Z,0.00
2017-12-26T00:21:21.639Z,0.00
2017-12-26T00:22:21.643Z,0.00
2017-12-26T00:23:21.673Z,0.00
2017-12-26T00:24:21.705Z,0.00
2017-12-26T00:25:21.754Z,0.00
2017-12-26T00:26:21.776Z,0.00
2017-12-26T00:27:21.805Z,0.00
2017-12-26T00:28:21.834Z,0.00
2017-12-26T00:29:21.866Z,0.00
2017-12-26T00:30:21.901Z,0.00
2017-12-26T00:31:21.925Z,0.00
2017-12-26T00:32:21.963Z,0.00
2017-12-26T00:33:21.993Z,0.00
2017-12-26T00:34:22.023Z,0.00
2017-12-26T00:35:22.057Z,0.00
2017-12-26T00:36:22.087Z,0.00
2017-12-26T00:37:22.122Z,0.00
2017-12-26T00:38:22.151Z,0.00
2017-12-26T00:39:22.182Z,0.00
2017-12-26T00:40:22.212Z,0.00
2017-12-26T00:41:22.287Z,0.00
2017-12-26T00:42:22.277Z,0.00
2017-12-26T00:43:22.309Z,0.00
2017-12-26T00:44:22.345Z,0.00
2017-12-26T00:45:22.426Z,0.00
2017-12-26T00:46:22.409Z,0.00
2017-12-26T00:47:22.439Z,0.00
2017-12-26T00:48:22.468Z,0.00
2017-12-26T00:49:22.503Z,0.00
2017-12-26T00:50:22.538Z,0.00
2017-12-26T00:51:22.564Z,0.00
2017-12-26T00:52:22.700Z,0.00
2017-12-26T00:53:22.625Z,0.00
2017-12-26T00:54:22.656Z,0.00
2017-12-26T00:55:22.688Z,0.00
2017-12-26T00:56:22.717Z,0.00
2017-12-26T00:57:22.755Z,0.00
2017-12-26T00:58:22.783Z,0.00
2017-12-26T00:59:22.822Z,0.00
2017-12-26T01:00:22.848Z,0.00
2017-12-26T01:01:22.877Z,0.00
2017-12-26T01:02:22.913Z,0.00
2017-12-26T01:03:22.940Z,0.00
2017-12-26T01:04:23.350Z,0.00
2017-12-26T01:05:23.005Z,0.00
2017-12-26T01:06:23.037Z,0.00
2017-12-26T01:07:23.065Z,0.00
2017-12-26T01:08:23.100Z,0.00
2017-12-26T01:09:23.132Z,0.00
2017-12-26T01:10:23.161Z,0.00
2017-12-26T01:11:23.190Z,0.00
2017-12-26T01:12:23.226Z,0.00
2017-12-26T01:13:23.255Z,0.00
2017-12-26T01:14:23.293Z,0.00
2017-12-26T01:15:23.318Z,0.00
2017-12-26T01:16:23.349Z,0.00
2017-12-26T01:17:23.384Z,0.00
2017-12-26T01:18:23.417Z,0.00
2017-12-26T01:19:23.446Z,0.00
2017-12-26T01:20:23.478Z,0.00
2017-12-26T01:21:23.509Z,0.00
2017-12-26T01:22:23.538Z,0.00
2017-12-26T01:23:23.568Z,0.00
2017-12-26T01:24:23.605Z,0.00
2017-12-26T01:25:23.630Z,0.00
2017-12-26T01:26:23.667Z,0.00
2017-12-26T01:27:23.696Z,0.00
2017-12-26T01:28:23.744Z,0.00
2017-12-26T01:29:23.758Z,0.00
2017-12-26T01:30:23.791Z,0.00
2017-12-26T01:31:23.824Z,0.00
2017-12-26T01:32:23.900Z,0.00
2017-12-26T01:33:23.883Z,0.00
2017-12-26T01:34:23.911Z,0.00
2017-12-26T01:35:24.296Z,0.00
2017-12-26T01:36:23.980Z,0.00
2017-12-26T01:37:24.009Z,0.00
2017-12-26T01:38:24.039Z,0.00
2017-12-26T01:39:24.068Z,0.00
2017-12-26T01:40:24.098Z,0.00
2017-12-26T01:41:24.132Z,0.00
2017-12-26T01:42:24.162Z,0.00
2017-12-26T01:43:24.192Z,0.00
2017-12-26T01:44:24.222Z,0.00
2017-12-26T01:45:24.309Z,0.00
2017-12-26T01:46:24.289Z,0.00
2017-12-26T01:47:24.314Z,0.00
2017-12-26T01:48:24.350Z,0.00
2017-12-26T01:49:24.379Z,0.00
2017-12-26T01:50:24.413Z,0.00
2017-12-26T01:51:24.440Z,0.00
2017-12-26T01:52:24.477Z,0.00
2017-12-26T01:53:24.507Z,0.00
2017-12-26T01:54:24.534Z,0.00
2017-12-26T01:55:24.564Z,0.00
2017-12-26T01:56:24.601Z,0.00
2017-12-26T01:57:24.680Z,0.00
2017-12-26T01:58:24.660Z,0.00
2017-12-26T01:59:24.691Z,0.00
2017-12-26T02:00:24.722Z,0.00
2017-12-26T02:01:24.754Z,0.00
2017-12-26T02:02:24.779Z,0.00
2017-12-26T02:03:24.811Z,0.00
2017-12-26T02:04:25.214Z,0.00
2017-12-26T02:05:24.874Z,0.00
2017-12-26T02:06:24.913Z,0.00
2017-12-26T02:07:24.937Z,0.00
2017-12-26T02:08:24.974Z,0.00
2017-12-26T02:09:25.010Z,0.00
2017-12-26T02:10:25.035Z,0.00
2017-12-26T02:11:25.088Z,0.00
2017-12-26T02:12:25.094Z,0.00
2017-12-26T02:13:25.122Z,0.00
2017-12-26T02:14:25.161Z,0.00
2017-12-26T02:15:25.186Z,0.00
2017-12-26T02:16:25.216Z,0.00
2017-12-26T02:17:25.248Z,0.00
2017-12-26T02:18:25.287Z,0.00
2017-12-26T02:19:25.309Z,0.00
2017-12-26T02:20:25.352Z,0.00
2017-12-26T02:21:25.375Z,0.00
2017-12-26T02:22:25.406Z,0.00
2017-12-26T02:23:25.432Z,0.00
2017-12-26T02:24:25.463Z,0.00
2017-12-26T02:25:25.497Z,0.00
2017-12-26T02:26:25.526Z,0.00
2017-12-26T02:27:25.557Z,0.00
2017-12-26T02:28:25.598Z,0.00
2017-12-26T02:29:25.629Z,0.00
2017-12-26T02:30:25.656Z,0.00
2017-12-26T02:31:25.680Z,0.00
2017-12-26T02:32:25.712Z,0.00
2017-12-26T02:33:25.745Z,0.00
2017-12-26T02:34:25.775Z,0.00
2017-12-26T02:35:25.810Z,0.00
2017-12-26T02:36:25.840Z,0.00
2017-12-26T02:37:25.868Z,0.00
2017-12-26T02:38:25.907Z,0.00
2017-12-26T02:39:25.930Z,0.00
2017-12-26T02:40:25.958Z,0.00
2017-12-26T02:41:25.997Z,0.00
2017-12-26T02:42:26.023Z,0.00
2017-12-26T02:43:26.057Z,0.00
2017-12-26T02:44:26.101Z,0.00
2017-12-26T02:45:26.115Z,0.00
2017-12-26T02:46:26.146Z,0.00
2017-12-26T02:47:26.246Z,0.00
2017-12-26T02:48:26.211Z,0.00
2017-12-26T02:49:26.239Z,0.00
2017-12-26T02:50:26.276Z,0.00
2017-12-26T02:51:26.307Z,0.00
2017-12-26T02:52:26.332Z,0.00
2017-12-26T02:53:26.367Z,0.00
2017-12-26T02:54:26.397Z,0.00
2017-12-26T02:55:26.425Z,0.00
2017-12-26T02:56:26.458Z,0.00
2017-12-26T02:57:26.487Z,0.00
2017-12-26T02:58:26.519Z,0.00
2017-12-26T02:59:26.548Z,0.00
2017-12-26T03:00:26.582Z,0.00
2017-12-26T03:01:26.614Z,0.00
2017-12-26T03:02:26.641Z,0.00
2017-12-26T03:03:26.674Z,0.00
2017-12-26T03:04:26.758Z,0.00
2017-12-26T03:05:26.740Z,0.00
2017-12-26T03:06:26.769Z,0.00
2017-12-26T03:07:26.798Z,0.00
2017-12-26T03:08:26.828Z,0.00
2017-12-26T03:09:26.858Z,0.00
2017-12-26T03:10:26.892Z,0.00
2017-12-26T03:11:26.992Z,0.00
2017-12-26T03:12:26.951Z,0.00
2017-12-26T03:13:26.981Z,0.00
2017-12-26T03:14:27.013Z,0.00
2017-12-26T03:15:27.048Z,0.00
2017-12-26T03:16:27.075Z,0.00
2017-12-26T03:17:27.104Z,0.00
2017-12-26T03:18:27.140Z,0.00
2017-12-26T03:19:27.167Z,0.00
2017-12-26T03:20:27.198Z,0.00
2017-12-26T03:21:27.304Z,0.00
2017-12-26T03:22:27.270Z,0.00
2017-12-26T03:23:27.291Z,0.00
2017-12-26T03:24:27.336Z,0.00
2017-12-26T03:25:27.352Z,0.00
2017-12-26T03:26:27.385Z,0.00
2017-12-26T03:27:27.416Z,0.00
2017-12-26T03:28:27.454Z,0.00
2017-12-26T03:29:27.476Z,0.00
2017-12-26T03:30:27.510Z,0.00
2017-12-26T03:31:27.537Z,0.00
2017-12-26T03:32:27.570Z,0.00
2017-12-26T03:33:27.603Z,0.00
2017-12-26T03:34:27.640Z,0.00
2017-12-26T03:35:27.662Z,0.00
2017-12-26T03:36:27.691Z,0.00
2017-12-26T03:37:27.724Z,0.00
2017-12-26T03:38:27.751Z,0.00
2017-12-26T03:39:27.782Z,0.00
2017-12-26T03:40:27.822Z,0.00
2017-12-26T03:41:27.844Z,0.00
2017-12-26T03:42:27.875Z,0.00
2017-12-26T03:43:27.909Z,0.00
2017-12-26T03:44:27.937Z,0.00
2017-12-26T03:45:27.975Z,0.00
2017-12-26T03:46:27.998Z,0.00
2017-12-26T03:47:28.369Z,0.00
2017-12-26T03:48:28.061Z,0.00
2017-12-26T03:49:28.094Z,0.00
2017-12-26T03:50:28.123Z,0.00
2017-12-26T03:51:28.153Z,0.00
2017-12-26T03:52:28.183Z,0.00
2017-12-26T03:53:28.213Z,0.00
2017-12-26T03:54:28.243Z,0.00
2017-12-26T03:55:28.275Z,0.00
2017-12-26T03:56:28.305Z,0.00
2017-12-26T03:57:28.335Z,0.00
2017-12-26T03:58:28.367Z,0.00
2017-12-26T03:59:28.397Z,0.00
2017-12-26T04:00:28.427Z,0.00
2017-12-26T04:01:28.461Z,0.00
2017-12-26T04:02:28.498Z,0.00
2017-12-26T04:03:28.524Z,0.00
2017-12-26T04:04:28.554Z,0.00
2017-12-26T04:05:28.584Z,0.00
2017-12-26T04:06:28.617Z,0.00
2017-12-26T04:07:28.648Z,0.00
2017-12-26T04:08:28.676Z,0.00
2017-12-26T04:09:28.705Z,0.00
2017-12-26T04:10:28.736Z,0.00
2017-12-26T04:11:28.816Z,0.00
2017-12-26T04:12:28.798Z,0.00
2017-12-26T04:13:28.828Z,0.00
2017-12-26T04:14:28.858Z,0.00
2017-12-26T04:15:28.888Z,0.00
2017-12-26T04:16:28.919Z,0.00
2017-12-26T04:17:28.950Z,0.00
2017-12-26T04:18:29.007Z,0.00
2017-12-26T04:19:29.013Z,0.00
2017-12-26T04:20:29.047Z,0.00
2017-12-26T04:21:29.074Z,0.00
2017-12-26T04:22:29.108Z,0.00
2017-12-26T04:23:29.136Z,0.00
2017-12-26T04:24:29.166Z,0.00
2017-12-26T04:25:29.204Z,0.00
2017-12-26T04:26:29.229Z,0.00
2017-12-26T04:27:29.258Z,0.00
2017-12-26T04:28:29.288Z,0.00
2017-12-26T04:29:29.319Z,0.00
2017-12-26T04:30:29.352Z,0.00
2017-12-26T04:31:29.380Z,0.00
2017-12-26T04:32:29.413Z,0.00
2017-12-26T04:33:29.448Z,0.00
2017-12-26T04:34:29.474Z,0.00
2017-12-26T04:35:29.505Z,0.00
2017-12-26T04:36:29.534Z,0.00
2017-12-26T04:37:29.566Z,0.00
2017-12-26T04:38:29.596Z,0.00
2017-12-26T04:39:29.627Z,0.00
2017-12-26T04:40:29.664Z,0.00
2017-12-26T04:41:29.689Z,0.00
2017-12-26T04:42:29.723Z,0.00
2017-12-26T04:43:29.750Z,0.00
2017-12-26T04:44:29.779Z,0.00
2017-12-26T04:45:29.819Z,0.00
2017-12-26T04:46:29.842Z,0.00
2017-12-26T04:47:29.875Z,0.00
2017-12-26T04:48:29.902Z,0.00
2017-12-26T04:49:29.949Z,0.00
2017-12-26T04:50:29.969Z,0.00
2017-12-26T04:51:29.995Z,0.00
2017-12-26T04:52:30.026Z,0.00
2017-12-26T04:53:30.060Z,0.00
2017-12-26T04:54:30.149Z,0.00
2017-12-26T04:55:30.181Z,0.00
2017-12-26T04:56:30.149Z,0.00
2017-12-26T04:57:30.180Z,0.00
2017-12-26T04:58:30.209Z,0.00
2017-12-26T04:59:30.240Z,0.00
2017-12-26T05:00:30.325Z,0.00
2017-12-26T05:01:30.301Z,0.00
2017-12-26T05:02:30.332Z,0.00
2017-12-26T05:03:30.366Z,0.00
2017-12-26T05:04:30.393Z,0.00
2017-12-26T05:05:30.424Z,0.00
2017-12-26T05:06:30.458Z,0.00
2017-12-26T05:07:30.483Z,0.00
2017-12-26T05:08:30.516Z,0.00
2017-12-26T05:09:30.546Z,0.00
2017-12-26T05:10:30.602Z,0.00
2017-12-26T05:11:30.610Z,0.00
2017-12-26T05:12:30.641Z,0.00
2017-12-26T05:13:30.673Z,0.00
2017-12-26T05:14:30.702Z,0.00
2017-12-26T05:15:30.736Z,0.00
2017-12-26T05:16:30.763Z,0.00
2017-12-26T05:17:30.792Z,0.00
2017-12-26T05:18:30.931Z,0.00
2017-12-26T05:19:30.852Z,0.00
2017-12-26T05:20:30.884Z,0.00
2017-12-26T05:21:30.921Z,0.00
2017-12-26T05:22:30.946Z,0.00
2017-12-26T05:23:30.978Z,0.00
2017-12-26T05:24:31.006Z,0.00
2017-12-26T05:25:31.038Z,0.00
2017-12-26T05:26:31.070Z,0.00
2017-12-26T05:27:31.099Z,0.00
2017-12-26T05:28:31.134Z,0.00
2017-12-26T05:29:31.159Z,0.00
2017-12-26T05:30:31.210Z,0.00
2017-12-26T05:31:31.230Z,0.00
2017-12-26T05:32:31.251Z,0.00
2017-12-26T05:33:31.284Z,0.00
2017-12-26T05:34:31.316Z,0.00
2017-12-26T05:35:31.342Z,0.00
2017-12-26T05:36:31.373Z,0.00
2017-12-26T05:37:31.416Z,0.00
2017-12-26T05:38:31.437Z,0.00
2017-12-26T05:39:31.464Z,0.00
2017-12-26T05:40:31.494Z,0.00
2017-12-26T05:41:31.527Z,0.00
2017-12-26T05:42:31.554Z,0.00
2017-12-26T05:43:31.588Z,0.00
2017-12-26T05:44:31.623Z,0.00
2017-12-26T05:45:31.648Z,0.00
2017-12-26T05:46:31.678Z,0.00
2017-12-26T05:47:31.712Z,0.00
2017-12-26T05:48:31.739Z,0.00
2017-12-26T05:49:31.773Z,0.00
2017-12-26T05:50:31.802Z,0.00
2017-12-26T05:51:31.837Z,0.00
2017-12-26T05:52:31.861Z,0.00
2017-12-26T05:53:31.896Z,0.00
2017-12-26T05:54:32.242Z,0.00
2017-12-26T05:55:31.957Z,0.00
2017-12-26T05:56:31.987Z,0.00
2017-12-26T05:57:32.016Z,0.00
2017-12-26T05:58:32.050Z,0.00
2017-12-26T05:59:32.077Z,0.00
2017-12-26T06:00:32.109Z,0.00
2017-12-26T06:01:32.224Z,0.00
2017-12-26T06:02:32.170Z,0.00
2017-12-26T06:03:32.200Z,0.00
2017-12-26T06:04:32.227Z,0.00
2017-12-26T06:05:32.259Z,0.00
2017-12-26T06:06:32.290Z,0.00
2017-12-26T06:07:32.329Z,0.00
2017-12-26T06:08:32.355Z,0.00
2017-12-26T06:09:32.381Z,0.00
2017-12-26T06:10:32.411Z,0.00
2017-12-26T06:11:32.443Z,0.00
2017-12-26T06:12:32.469Z,0.00
2017-12-26T06:13:32.503Z,0.00
2017-12-26T06:14:32.539Z,0.00
2017-12-26T06:15:32.563Z,0.00
2017-12-26T06:16:32.607Z,0.00
2017-12-26T06:17:32.634Z,0.00
2017-12-26T06:18:32.658Z,0.00
2017-12-26T06:19:32.696Z,0.00
2017-12-26T06:20:33.047Z,0.00
2017-12-26T06:21:32.749Z,0.00
2017-12-26T06:22:32.779Z,0.00
2017-12-26T06:23:32.809Z,0.00
2017-12-26T06:24:32.839Z,0.00
2017-12-26T06:25:32.889Z,0.00
2017-12-26T06:26:32.899Z,0.00
2017-12-26T06:27:32.929Z,0.00
2017-12-26T06:28:32.960Z,0.00
2017-12-26T06:29:32.990Z,0.00
2017-12-26T06:30:33.036Z,0.00
2017-12-26T06:31:33.053Z,0.00
2017-12-26T06:32:33.083Z,0.00
2017-12-26T06:33:33.112Z,0.00
2017-12-26T06:34:33.143Z,0.00
2017-12-26T06:35:33.175Z,0.00
2017-12-26T06:36:33.211Z,0.00
2017-12-26T06:37:33.298Z,0.00
2017-12-26T06:38:33.267Z,0.00
2017-12-26T06:39:33.297Z,0.00
2017-12-26T06:40:33.330Z,0.00
2017-12-26T06:41:33.358Z,0.00
2017-12-26T06:42:33.386Z,0.00
2017-12-26T06:43:33.418Z,0.00
2017-12-26T06:44:33.452Z,0.00
2017-12-26T06:45:33.483Z,0.00
2017-12-26T06:46:33.512Z,0.00
2017-12-26T06:47:33.544Z,4.00
2017-12-26T06:48:33.573Z,4.00
2017-12-26T06:49:33.602Z,4.00
2017-12-26T06:50:33.651Z,0.00
2017-12-26T06:51:33.675Z,4.00
2017-12-26T06:52:33.693Z,4.00
2017-12-26T06:53:33.722Z,8.00
2017-12-26T06:54:33.755Z,4.00
2017-12-26T06:55:33.782Z,8.00
2017-12-26T06:56:33.812Z,8.00
2017-12-26T06:57:33.843Z,8.00
2017-12-26T06:58:33.872Z,8.00
2017-12-26T06:59:33.903Z,12.00
2017-12-26T07:00:33.932Z,16.00
2017-12-26T07:01:34.023Z,16.00
2017-12-26T07:02:33.996Z,20.00
2017-12-26T07:03:34.023Z,20.00
2017-12-26T07:04:34.063Z,28.00
2017-12-26T07:05:34.086Z,28.00
2017-12-26T07:06:34.116Z,32.00
2017-12-26T07:07:34.147Z,36.00
2017-12-26T07:08:34.180Z,44.00
2017-12-26T07:09:34.210Z,52.00
2017-12-26T07:10:34.243Z,56.00
2017-12-26T07:11:34.266Z,64.00
2017-12-26T07:12:34.297Z,76.00
2017-12-26T07:13:34.436Z,84.00
2017-12-26T07:14:34.359Z,96.00
2017-12-26T07:15:34.389Z,108.00
2017-12-26T07:16:34.420Z,120.00
2017-12-26T07:17:34.455Z,132.00
2017-12-26T07:18:34.502Z,144.00
2017-12-26T07:19:34.510Z,156.00
2017-12-26T07:20:34.553Z,172.00
2017-12-26T07:21:34.570Z,184.00
2017-12-26T07:22:34.606Z,200.00
2017-12-26T07:23:34.632Z,216.00
2017-12-26T07:24:34.666Z,232.00
2017-12-26T07:25:34.694Z,252.00
2017-12-26T07:26:34.727Z,268.00
2017-12-26T07:27:34.752Z,288.00
2017-12-26T07:28:34.787Z,308.00
2017-12-26T07:29:34.817Z,328.00
2017-12-26T07:30:34.845Z,352.00
2017-12-26T07:31:34.876Z,376.00
2017-12-26T07:32:34.906Z,400.00
2017-12-26T07:33:34.936Z,428.00
2017-12-26T07:34:34.967Z,456.00
2017-12-26T07:35:34.994Z,484.00
2017-12-26T07:36:35.027Z,512.00
2017-12-26T07:37:35.070Z,544.00
2017-12-26T07:38:35.102Z,572.00
2017-12-26T07:39:35.117Z,608.00
2017-12-26T07:40:35.146Z,640.00
2017-12-26T07:41:35.178Z,668.00
2017-12-26T07:42:35.208Z,696.00
2017-12-26T07:43:35.237Z,736.00
2017-12-26T07:44:35.276Z,768.00
2017-12-26T07:45:35.298Z,808.00
2017-12-26T07:46:35.330Z,844.00
2017-12-26T07:47:35.360Z,880.00
2017-12-26T07:48:35.388Z,916.00
2017-12-26T07:49:35.421Z,956.00
2017-12-26T07:50:35.450Z,992.00
2017-12-26T07:51:35.480Z,1036.00
2017-12-26T07:52:35.512Z,1072.00
2017-12-26T07:53:35.541Z,1116.00
2017-12-26T07:54:35.629Z,1152.00
2017-12-26T07:55:35.601Z,1188.00
2017-12-26T07:56:35.632Z,1232.00
2017-12-26T07:57:35.662Z,1276.00
2017-12-26T07:58:35.695Z,1312.00
2017-12-26T07:59:35.732Z,1360.00
2017-12-26T08:00:35.755Z,1396.00
2017-12-26T08:01:35.799Z,1436.00
2017-12-26T08:02:35.820Z,1480.00
2017-12-26T08:03:35.844Z,1508.00
2017-12-26T08:04:35.881Z,1536.00
2017-12-26T08:05:35.916Z,1568.00
2017-12-26T08:06:35.941Z,1592.00
2017-12-26T08:07:35.971Z,1624.00
2017-12-26T08:08:36.000Z,1648.00
2017-12-26T08:09:36.031Z,1676.00
2017-12-26T08:10:36.070Z,1700.00
2017-12-26T08:11:36.090Z,1728.00
2017-12-26T08:12:36.122Z,1748.00
2017-12-26T08:13:36.158Z,1780.00
2017-12-26T08:14:36.181Z,1796.00
2017-12-26T08:15:36.210Z,1824.00
2017-12-26T08:16:36.241Z,1844.00
2017-12-26T08:17:36.271Z,1872.00
2017-12-26T08:18:36.303Z,1892.00
2017-12-26T08:19:36.334Z,1916.00
2017-12-26T08:20:36.396Z,1936.00
2017-12-26T08:21:36.396Z,1960.00
2017-12-26T08:22:36.424Z,1984.00
2017-12-26T08:23:36.456Z,2008.00
2017-12-26T08:24:36.488Z,2028.00
2017-12-26T08:25:36.517Z,2044.00
2017-12-26T08:26:36.552Z,2064.00
2017-12-26T08:27:36.577Z,2092.00
2017-12-26T08:28:36.611Z,2112.00
2017-12-26T08:29:36.643Z,2144.00
2017-12-26T08:30:36.674Z,2168.00
2017-12-26T08:31:36.705Z,2208.00
2017-12-26T08:32:36.733Z,2244.00
2017-12-26T08:33:36.763Z,2260.00
2017-12-26T08:34:36.803Z,2268.00
2017-12-26T08:35:36.822Z,2268.00
2017-12-26T08:36:36.855Z,2292.00
2017-12-26T08:37:36.970Z,2356.00
2017-12-26T08:38:36.917Z,2468.00
2017-12-26T08:39:36.949Z,2600.00
2017-12-26T08:40:36.978Z,2840.00
2017-12-26T08:41:37.009Z,3168.00
2017-12-26T08:42:37.043Z,3292.00
2017-12-26T08:43:37.069Z,3172.00
2017-12-26T08:44:37.105Z,2924.00
2017-12-26T08:45:37.133Z,2632.00
2017-12-26T08:46:37.187Z,2440.00
2017-12-26T08:47:37.195Z,2344.00
2017-12-26T08:48:37.228Z,2268.00
2017-12-26T08:49:37.254Z,2220.00
2017-12-26T08:50:37.291Z,2208.00
2017-12-26T08:51:37.318Z,2212.00
2017-12-26T08:52:37.356Z,2260.00
2017-12-26T08:53:37.380Z,2324.00
2017-12-26T08:54:37.410Z,2352.00
2017-12-26T08:55:37.445Z,2404.00
2017-12-26T08:56:37.476Z,2488.00
2017-12-26T08:57:37.505Z,2540.00
2017-12-26T08:58:37.548Z,2624.00
2017-12-26T08:59:37.568Z,2668.00
2017-12-26T09:00:37.599Z,2792.00
2017-12-26T09:01:37.631Z,2688.00
2017-12-26T09:02:37.666Z,2448.00
2017-12-26T09:03:37.772Z,2512.00
2017-12-26T09:04:37.731Z,2664.00
2017-12-26T09:05:37.756Z,2504.00
2017-12-26T09:06:37.794Z,2344.00
2017-12-26T09:07:37.829Z,2148.00
2017-12-26T09:08:37.851Z,2084.00
2017-12-26T09:09:37.880Z,1996.00
2017-12-26T09:10:37.976Z,2032.00
2017-12-26T09:11:37.948Z,2172.00
2017-12-26T09:12:37.977Z,2492.00
2017-12-26T09:13:38.108Z,2744.00
2017-12-26T09:14:38.052Z,2548.00
2017-12-26T09:15:38.078Z,2040.00
2017-12-26T09:16:38.102Z,1912.00
2017-12-26T09:17:38.137Z,2040.00
2017-12-26T09:18:38.168Z,1828.00
2017-12-26T09:19:38.198Z,1832.00
2017-12-26T09:20:38.244Z,2060.00
2017-12-26T09:21:38.262Z,2364.00
2017-12-26T09:22:38.295Z,2140.00
2017-12-26T09:23:38.324Z,1628.00
2017-12-26T09:24:38.359Z,1844.00
2017-12-26T09:25:38.390Z,2204.00
2017-12-26T09:26:38.421Z,2588.00
2017-12-26T09:27:38.454Z,2832.00
2017-12-26T09:28:38.483Z,2992.00
2017-12-26T09:29:38.518Z,2940.00
2017-12-26T09:30:38.563Z,2620.00
2017-12-26T09:31:38.582Z,2512.00
2017-12-26T09:32:38.612Z,3200.00
2017-12-26T09:33:38.646Z,2976.00
2017-12-26T09:34:38.680Z,2736.00
2017-12-26T09:35:38.715Z,2796.00
2017-12-26T09:36:38.739Z,2656.00
2017-12-26T09:37:38.820Z,2308.00
2017-12-26T09:38:38.811Z,2460.00
2017-12-26T09:39:38.841Z,3056.00
2017-12-26T09:40:38.884Z,4036.00
2017-12-26T09:41:38.903Z,5080.00
2017-12-26T09:42:38.936Z,6132.00
2017-12-26T09:43:38.966Z,6464.00
2017-12-26T09:44:39.005Z,5824.00
2017-12-26T09:45:39.036Z,5308.00
2017-12-26T09:46:39.066Z,4380.00
2017-12-26T09:47:39.104Z,3444.00
2017-12-26T09:48:39.131Z,3532.00
2017-12-26T09:49:39.191Z,3908.00
2017-12-26T09:50:39.204Z,4452.00
2017-12-26T09:51:39.230Z,4240.00
2017-12-26T09:52:39.272Z,4212.00
2017-12-26T09:53:39.295Z,4036.00
2017-12-26T09:54:39.331Z,4052.00
2017-12-26T09:55:39.362Z,3992.00
2017-12-26T09:56:39.395Z,4396.00
2017-12-26T09:57:39.426Z,3880.00
2017-12-26T09:58:39.458Z,3508.00
2017-12-26T09:59:39.492Z,3496.00
2017-12-26T10:00:39.524Z,3724.00
2017-12-26T10:01:39.557Z,2960.00
2017-12-26T10:02:39.647Z,2768.00
2017-12-26T10:03:39.802Z,2668.00
2017-12-26T10:04:39.652Z,3212.00
2017-12-26T10:05:39.690Z,3824.00
2017-12-26T10:06:39.723Z,4464.00
2017-12-26T10:07:39.753Z,5012.00
2017-12-26T10:08:39.795Z,5232.00
2017-12-26T10:09:39.817Z,5544.00
2017-12-26T10:10:39.853Z,6560.00
2017-12-26T10:11:39.895Z,6876.00
2017-12-26T10:12:39.920Z,6472.00
2017-12-26T10:13:39.954Z,5492.00
2017-12-26T10:14:39.983Z,4340.00
2017-12-26T10:15:40.020Z,3476.00
2017-12-26T10:16:40.055Z,4216.00
2017-12-26T10:17:40.084Z,4040.00
2017-12-26T10:18:40.117Z,3236.00
2017-12-26T10:19:40.149Z,2812.00
2017-12-26T10:20:40.187Z,2504.00
2017-12-26T10:21:40.232Z,3344.00
2017-12-26T10:22:40.249Z,3652.00
2017-12-26T10:23:40.292Z,3788.00
2017-12-26T10:24:40.314Z,3864.00
2017-12-26T10:25:40.367Z,4356.00
2017-12-26T10:26:40.386Z,4556.00
2017-12-26T10:27:40.428Z,4376.00
2017-12-26T10:28:40.447Z,3876.00
2017-12-26T10:29:40.486Z,3436.00
2017-12-26T10:30:40.529Z,3572.00
2017-12-26T10:31:40.548Z,3828.00
2017-12-26T10:32:40.581Z,2996.00
2017-12-26T10:33:40.616Z,2672.00
2017-12-26T10:34:40.652Z,3000.00
2017-12-26T10:35:40.680Z,2624.00
2017-12-26T10:36:40.717Z,2040.00
2017-12-26T10:37:40.747Z,3084.00
2017-12-26T10:38:40.788Z,3500.00
2017-12-26T10:39:40.812Z,3840.00
2017-12-26T10:40:40.847Z,5124.00
2017-12-26T10:41:40.937Z,6252.00
2017-12-26T10:42:40.919Z,5420.00
2017-12-26T10:43:40.948Z,6676.00
2017-12-26T10:44:40.985Z,8364.00
2017-12-26T10:45:41.011Z,9252.00
2017-12-26T10:46:41.062Z,9360.00
2017-12-26T10:47:41.086Z,7936.00
2017-12-26T10:48:41.110Z,7032.00
2017-12-26T10:49:41.150Z,6420.00
2017-12-26T10:50:41.193Z,6416.00
2017-12-26T10:51:41.212Z,6468.00
2017-12-26T10:52:41.243Z,6744.00
2017-12-26T10:53:41.458Z,7096.00
2017-12-26T10:54:41.314Z,7200.00
2017-12-26T10:55:41.344Z,7368.00
2017-12-26T10:56:41.492Z,7496.00
2017-12-26T10:57:41.412Z,7212.00
2017-12-26T10:58:41.443Z,7012.00
2017-12-26T10:59:41.478Z,7088.00
2017-12-26T11:00:41.511Z,7364.00
2017-12-26T11:01:41.543Z,7460.00
2017-12-26T11:02:41.582Z,7984.00
2017-12-26T11:03:41.692Z,8164.00
2017-12-26T11:04:41.653Z,8696.00
2017-12-26T11:05:41.681Z,9308.00
2017-12-26T11:06:41.723Z,9596.00
2017-12-26T11:07:41.750Z,8668.00
2017-12-26T11:08:41.794Z,7800.00
2017-12-26T11:09:41.823Z,7424.00
2017-12-26T11:10:42.126Z,7772.00
2017-12-26T11:11:41.884Z,6788.00
2017-12-26T11:12:41.930Z,6152.00
2017-12-26T11:13:42.000Z,5848.00
2017-12-26T11:14:42.000Z,5460.00
2017-12-26T11:15:42.025Z,4360.00
2017-12-26T11:16:42.052Z,3412.00
2017-12-26T11:17:42.092Z,3168.00
2017-12-26T11:18:42.121Z,2812.00
2017-12-26T11:19:42.153Z,2960.00
2017-12-26T11:20:42.191Z,3124.00
2017-12-26T11:21:42.222Z,2916.00
2017-12-26T11:22:42.262Z,2420.00
2017-12-26T11:23:42.291Z,2372.00
2017-12-26T11:24:42.324Z,2000.00
2017-12-26T11:25:42.357Z,1732.00
2017-12-26T11:26:42.408Z,1752.00
2017-12-26T11:27:42.424Z,1684.00
2017-12-26T11:28:42.462Z,1612.00
2017-12-26T11:29:42.502Z,1692.00
2017-12-26T11:30:42.528Z,1984.00
2017-12-26T11:31:42.571Z,2056.00
2017-12-26T11:32:42.633Z,2712.00
2017-12-26T11:33:42.633Z,2872.00
2017-12-26T11:34:42.663Z,3032.00
2017-12-26T11:35:42.698Z,2704.00
2017-12-26T11:36:42.734Z,3128.00
2017-12-26T11:37:42.766Z,3056.00
2017-12-26T11:38:42.799Z,3060.00
2017-12-26T11:39:43.262Z,2904.00
2017-12-26T11:40:42.866Z,3532.00
2017-12-26T11:41:42.904Z,3956.00
2017-12-26T11:42:42.934Z,3576.00
2017-12-26T11:43:42.973Z,2312.00
2017-12-26T11:44:43.005Z,1688.00
2017-12-26T11:45:43.036Z,1708.00
2017-12-26T11:46:43.071Z,1824.00
2017-12-26T11:47:43.106Z,2936.00
2017-12-26T11:48:43.135Z,2880.00
2017-12-26T11:49:43.171Z,2828.00
2017-12-26T11:50:43.205Z,2644.00
2017-12-26T11:51:43.238Z,2636.00
2017-12-26T11:52:43.270Z,2456.00
2017-12-26T11:53:43.312Z,2652.00
2017-12-26T11:54:43.339Z,2296.00
2017-12-26T11:55:43.376Z,2092.00
2017-12-26T11:56:43.448Z,1880.00
2017-12-26T11:57:43.438Z,2352.00
2017-12-26T11:58:43.473Z,1820.00
2017-12-26T11:59:43.526Z,1408.00
2017-12-26T12:00:43.540Z,1108.00
2017-12-26T12:01:43.576Z,832.00
2017-12-26T12:02:43.606Z,824.00
2017-12-26T12:03:43.639Z,1020.00
2017-12-26T12:04:43.671Z,1292.00
2017-12-26T12:05:43.706Z,1568.00
2017-12-26T12:06:43.738Z,1612.00
2017-12-26T12:07:43.777Z,1472.00
2017-12-26T12:08:43.807Z,1856.00
2017-12-26T12:09:43.841Z,2212.00
2017-12-26T12:10:43.882Z,2372.00
2017-12-26T12:11:43.916Z,2108.00
2017-12-26T12:12:43.949Z,1700.00
2017-12-26T12:13:43.969Z,1468.00
2017-12-26T12:14:44.012Z,1568.00
2017-12-26T12:15:44.105Z,1864.00
2017-12-26T12:16:44.067Z,2816.00
2017-12-26T12:17:44.103Z,3400.00
2017-12-26T12:18:44.142Z,3892.00
2017-12-26T12:19:44.167Z,4436.00
2017-12-26T12:20:44.199Z,4804.00
2017-12-26T12:21:44.233Z,5180.00
2017-12-26T12:22:44.263Z,5368.00
2017-12-26T12:23:44.298Z,5296.00
2017-12-26T12:24:44.329Z,4932.00
2017-12-26T12:25:44.382Z,4252.00
2017-12-26T12:26:44.409Z,3508.00
2017-12-26T12:27:44.427Z,2756.00
2017-12-26T12:28:44.463Z,2368.00
2017-12-26T12:29:44.492Z,1996.00
2017-12-26T12:30:44.524Z,1944.00
2017-12-26T12:31:44.560Z,2132.00
2017-12-26T12:32:44.608Z,2472.00
2017-12-26T12:33:44.620Z,2912.00
2017-12-26T12:34:44.655Z,3520.00
2017-12-26T12:35:44.685Z,3484.00
2017-12-26T12:36:44.719Z,3444.00
2017-12-26T12:37:44.748Z,3872.00
2017-12-26T12:38:44.782Z,4420.00
2017-12-26T12:39:44.862Z,4084.00
2017-12-26T12:40:44.846Z,3540.00
2017-12-26T12:41:44.877Z,3180.00
2017-12-26T12:42:44.910Z,3172.00
2017-12-26T12:43:44.942Z,3076.00
2017-12-26T12:44:44.973Z,3156.00
2017-12-26T12:45:45.012Z,3844.00
2017-12-26T12:46:45.058Z,4532.00